Decoded Metar for SULS (MALDONADO in URUGUAY) (IATA:N/A) | Meteo·Mobile Aviation Weather
aviador You're here:

SULS Decoded Metar

MALDONADO in URUGUAY
Report Time2018-09-21 17:00:00
UTC Time2018-09-21 17:18:05
Flight Rules vfr VFR
Wind310° at 14 kt
W.Decomp.*RWY 01: 8.6 kt HW 11 kt LCW
RWY 26: 7.4 kt HW 11.9 kt RCW
W.Rank310° ranks 31
Current wind is above 310° avg. (7.5)
Visibility9999 m
Phenomena:N/A
Clouds:Few 025 Hf
Broken 200 Hf
Expected CloudBase > 3,600 ft AGL from Temp-Dew spread
Ceiling20,000 ft
Temp25°C (ISA +10)
Dew Point16°C (57% RH)
AAT21.9°C
QNH1010 hPa
Density Alt1,621 ft
Elevation98 ft
Report Wrong Elevation
Raw Report
SULS 211700Z 31014KT 9999 FEW025 BKN200 25/16 Q1010=

Extra information for SULS:More info

Metar Taf Metar & Taf Last 4 Metars F.Rules Stats Wind Profile Meteogram Temp Stats Airport Information Weather charts Add Link Nearby VenuesMetar ALERT Operation Metar Decoded Social comments